| time (UTC) | temp F | wind direction | speed MPH | gust MPH | rain 1hr in | rain 24hr in | rain mn in | humidity % | barometer mb |
| 20260506171551 | 52 | 153 | 1.0 | 0.0 | 0.00 | 0.00 | 0.61 | 70 | 1006.2 |
| 20260506170049 | 52 | 173 | 1.0 | 0.0 | 0.00 | 0.00 | 0.57 | 71 | 1006.5 |
| 20260506164552 | 52 | 163 | 1.0 | 0.0 | 0.00 | 0.00 | 0.54 | 73 | 1006.5 |
| 20260506163051 | 53 | 163 | 1.0 | 0.0 | 0.00 | 0.00 | 0.50 | 75 | 1006.6 |
| 20260506161551 | 53 | 163 | 1.0 | 0.0 | 0.00 | 0.00 | 0.46 | 73 | 1006.7 |
| 20260506160046 | 54 | 167 | 0.0 | 0.0 | 0.00 | 0.00 | 0.44 | 73 | 1006.9 |
| 20260506154540 | 54 | 158 | 1.0 | 0.0 | 0.00 | 0.00 | 0.41 | 71 | 1007.0 |
| 20260506153040 | 54 | 145 | 0.0 | 0.0 | 0.00 | 0.00 | 0.37 | 71 | 1007.2 |
| 20260506151558 | 54 | 156 | 1.0 | 0.0 | 0.00 | 0.00 | 0.33 | 73 | 1007.3 |
| 20260506150038 | 55 | 160 | 0.0 | 0.0 | 0.00 | 0.00 | 0.30 | 71 | 1007.4 |
| 20260506144536 | 55 | 161 | 1.0 | 0.0 | 0.00 | 0.00 | 0.26 | 73 | 1007.7 |
| 20260506143045 | 55 | 160 | 1.0 | 0.0 | 0.00 | 0.00 | 0.23 | 75 | 1007.9 |
| 20260506141534 | 55 | 158 | 1.0 | 0.0 | 0.00 | 0.00 | 0.20 | 75 | 1007.9 |
| 20260506140037 | 56 | 153 | 0.0 | 0.0 | 0.00 | 0.00 | 0.17 | 75 | 1008.2 |
| 20260506134533 | 57 | 138 | 0.0 | 0.0 | 0.00 | 0.00 | 0.15 | 71 | 1007.8 |
| 20260506133039 | 57 | 136 | 0.0 | 0.0 | 0.00 | 0.00 | 0.14 | 71 | 1007.5 |
| 20260506131536 | 56 | 135 | 0.0 | 0.0 | 0.00 | 0.00 | 0.12 | 74 | 1007.8 |
| 20260506130031 | 56 | 131 | 0.0 | 0.0 | 0.00 | 0.00 | 0.10 | 76 | 1007.8 |
| 20260506124530 | 56 | 145 | 0.0 | 0.0 | 0.00 | 0.00 | 0.08 | 75 | 1007.9 |
| 20260506123030 | 57 | 139 | 0.0 | 0.0 | 0.00 | 0.00 | 0.06 | 74 | 1007.9 |
| 20260506121529 | 56 | 138 | 0.0 | 0.0 | 0.00 | 0.00 | 0.04 | 75 | 1008.4 |
| 20260506120031 | 56 | 139 | 0.0 | 0.0 | 0.00 | 0.00 | 0.03 | 76 | 1008.4 |
| 20260506114538 | 56 | 138 | 0.0 | 0.0 | 0.00 | 0.00 | 0.02 | 77 | 1007.7 |
| 20260506113029 | 56 | 138 | 0.0 | 0.0 | 0.00 | 0.00 | 0.02 | 78 | 1007.5 |
| 20260506111526 | 55 | 138 | 0.0 | 0.0 | 0.00 | 0.00 | 0.02 | 79 | 1007.8 |
| 20260506110025 | 55 | 138 | 0.0 | 0.0 | 0.00 | 0.00 | 0.02 | 79 | 1007.8 |
| 20260506104524 | 55 | 138 | 0.0 | 0.0 | 0.00 | 0.00 | 0.02 | 80 | 1007.8 |
| 20260506103023 | 55 | 148 | 0.0 | 0.0 | 0.00 | 0.00 | 0.01 | 81 | 1007.7 |
| 20260506101542 | 55 | 148 | 0.0 | 0.0 | 0.00 | 0.00 | 0.01 | 81 | 1007.8 |
| 20260506100021 | 54 | 149 | 0.0 | 0.0 | 0.00 | 0.00 | 0.01 | 82 | 1007.5 |
| 20260506094522 | 54 | 149 | 0.0 | 0.0 | 0.00 | 0.00 | 0.01 | 83 | 1007.4 |
| 20260506093020 | 55 | 150 | 0.0 | 0.0 | 0.00 | 0.00 | 0.01 | 83 | 1007.3 |
| 20260506091521 | 55 | 149 | 0.0 | 0.0 | 0.00 | 0.00 | 0.01 | 83 | 1007.5 |
| 20260506090020 | 55 | 150 | 0.0 | 0.0 | 0.00 | 0.00 | 0.01 | 84 | 1007.7 |
| 20260506084520 | 55 | 153 | 0.0 | 0.0 | 0.00 | 0.00 | 0.01 | 84 | 1007.7 |
| 20260506083017 | 55 | 152 | 0.0 | 0.0 | 0.00 | 0.00 | 0.01 | 84 | 1007.7 |
| 20260506081515 | 55 | 153 | 0.0 | 0.0 | 0.00 | 0.00 | 0.01 | 85 | 1007.9 |
| 20260506073012 | 56 | 152 | 0.0 | 0.0 | 0.00 | 0.00 | 0.01 | 85 | 1008.4 |
| 20260506071515 | 56 | 129 | 0.0 | 0.0 | 0.00 | 0.00 | 0.01 | 84 | 1008.3 |
| 20260506061504 | 58 | 124 | 0.0 | 0.0 | 0.00 | 0.00 | 0.01 | 83 | 1008.3 |
| 20260506044600 | 60 | 138 | 0.0 | 0.0 | 0.00 | 0.00 | 0.01 | 84 | 1008.5 |
| 20260506043051 | 61 | 142 | 0.0 | 0.0 | 0.00 | 0.00 | 0.01 | 84 | 1008.2 |
| 20260506041559 | 61 | 136 | 0.0 | 0.0 | 0.00 | 0.00 | 0.01 | 84 | 1008.5 |
| 20260506040043 | 61 | 136 | 0.0 | 0.0 | 0.00 | 0.00 | 0.00 | 83 | 1008.5 |
| 20260506034545 | 62 | 136 | 0.0 | 0.0 | 0.00 | 0.00 | 0.14 | 84 | 1008.5 |
| 20260506033044 | 62 | 145 | 0.0 | 0.0 | 0.00 | 0.00 | 0.14 | 83 | 1008.1 |
| 20260506031542 | 62 | 148 | 0.0 | 0.0 | 0.00 | 0.00 | 0.14 | 83 | 1008.1 |
| 20260506030042 | 62 | 148 | 0.0 | 0.0 | 0.00 | 0.00 | 0.14 | 83 | 1008.1 |
| 20260506024542 | 62 | 122 | 0.0 | 0.0 | 0.00 | 0.00 | 0.14 | 83 | 1008.1 |
| 20260506023040 | 62 | 150 | 0.0 | 0.0 | 0.00 | 0.00 | 0.14 | 83 | 1008.0 |
| 20260506021539 | 62 | 149 | 0.0 | 0.0 | 0.00 | 0.00 | 0.14 | 83 | 1007.8 |
| 20260506020038 | 62 | 149 | 0.0 | 0.0 | 0.00 | 0.00 | 0.14 | 83 | 1007.8 |
| 20260506014547 | 62 | 149 | 0.0 | 0.0 | 0.00 | 0.00 | 0.14 | 83 | 1007.7 |
| 20260506013039 | 62 | 150 | 0.0 | 0.0 | 0.00 | 0.00 | 0.14 | 83 | 1007.2 |
| 20260506011541 | 62 | 150 | 0.0 | 0.0 | 0.00 | 0.00 | 0.14 | 83 | 1007.2 |
| 20260506010036 | 62 | 150 | 0.0 | 0.0 | 0.00 | 0.00 | 0.14 | 83 | 1007.1 |
| 20260506004541 | 62 | 135 | 0.0 | 0.0 | 0.00 | 0.00 | 0.14 | 82 | 1007.2 |
| 20260506003036 | 62 | 142 | 0.0 | 0.0 | 0.00 | 0.00 | 0.14 | 82 | 1006.8 |
| 20260506001544 | 62 | 143 | 0.0 | 0.0 | 0.00 | 0.00 | 0.14 | 80 | 1006.5 |
| 20260506000043 | 63 | 131 | 0.0 | 0.0 | 0.00 | 0.00 | 0.14 | 78 | 1006.4 |
| 20260505234541 | 64 | 127 | 0.0 | 0.0 | 0.00 | 0.00 | 0.14 | 75 | 1006.4 |
| 20260505233034 | 65 | 123 | 1.0 | 0.0 | 0.00 | 0.00 | 0.14 | 74 | 1006.3 |
| 20260505231539 | 65 | 129 | 0.0 | 0.0 | 0.00 | 0.00 | 0.14 | 73 | 1005.8 |
| 20260505230037 | 65 | 134 | 0.0 | 0.0 | 0.00 | 0.00 | 0.14 | 73 | 1005.8 |
| 20260505224538 | 65 | 136 | 1.0 | 0.0 | 0.00 | 0.00 | 0.14 | 74 | 1005.6 |
| 20260505223041 | 65 | 163 | 1.0 | 0.0 | 0.00 | 0.00 | 0.14 | 73 | 1005.7 |
| 20260505221532 | 66 | 136 | 3.0 | 0.0 | 0.00 | 0.00 | 0.14 | 71 | 1005.8 |
| 20260505220038 | 67 | 148 | 3.0 | 0.0 | 0.00 | 0.00 | 0.14 | 66 | 1006.1 |
| 20260505214548 | 67 | 134 | 2.0 | 0.0 | 0.00 | 0.00 | 0.14 | 66 | 1005.7 |
| 20260505213048 | 68 | 160 | 2.0 | 0.0 | 0.00 | 0.00 | 0.14 | 64 | 1004.7 |
| 20260505211530 | 68 | 130 | 2.0 | 0.0 | 0.00 | 0.00 | 0.14 | 65 | 1005.1 |
| 20260505210031 | 70 | 132 | 3.0 | 0.0 | 0.00 | 0.00 | 0.14 | 65 | 1005.1 |
| 20260505204532 | 70 | 144 | 0.0 | 0.0 | 0.00 | 0.00 | 0.14 | 72 | 1004.2 |
| 20260505203028 | 70 | 141 | 1.0 | 0.0 | 0.00 | 0.00 | 0.14 | 75 | 1003.9 |
| 20260505201543 | 68 | 155 | 0.0 | 0.0 | 0.00 | 0.00 | 0.14 | 82 | 1004.1 |
| 20260505200029 | 66 | 135 | 0.0 | 0.0 | 0.00 | 0.00 | 0.14 | 83 | 1004.1 |
| 20260505194526 | 67 | 138 | 2.0 | 0.0 | 0.00 | 0.00 | 0.14 | 74 | 1004.5 |
| 20260505193040 | 75 | 141 | 1.0 | 0.0 | 0.00 | 0.00 | 0.06 | 50 | 1003.5 |
| 20260505191525 | 81 | 133 | 2.0 | 0.0 | 0.00 | 0.00 | 0.06 | 35 | 1003.5 |
| 20260505190031 | 81 | 127 | 4.0 | 0.0 | 0.00 | 0.00 | 0.06 | 34 | 1002.6 |
| 20260505184526 | 83 | 81 | 4.0 | 0.0 | 0.00 | 0.00 | 0.06 | 34 | 1002.4 |
| 20260505183036 | 83 | 129 | 4.0 | 0.0 | 0.00 | 0.00 | 0.06 | 33 | 1002.7 |
| 20260505181523 | 82 | 124 | 4.0 | 0.0 | 0.00 | 0.00 | 0.06 | 37 | 1002.9 |
| 20260505180030 | 80 | 129 | 3.0 | 0.0 | 0.00 | 0.00 | 0.06 | 42 | 1002.9 |
| 20260505174524 | 80 | 183 | 4.0 | 0.0 | 0.00 | 0.00 | 0.06 | 42 | 1003.4 |
| 20260505173015 | 79 | 104 | 2.0 | 0.0 | 0.00 | 0.00 | 0.06 | 44 | 1003.6 |